Time;durP1;ratioP1;P1;durP2;ratioP2;P2;SDS_P1;SDS_P2;PMS_P1;PMS_P2;Temp;Humidity;BMP_temperature;BMP_pressure;BME280_temperature;BME280_humidity;BME280_pressure;Samples;Min_cycle;Max_cycle;Signal;HPM_P1;HPM_P2
2020/12/13 00:02:12;;;;;;;13.90;11.23;;;7.40;99.90;;;;;;4955214;28;20234;-77
2020/12/13 00:04:38;;;;;;;15.93;10.93;;;7.50;99.90;;;;;;4954817;28;20218;-77
2020/12/13 00:07:05;;;;;;;15.87;9.97;;;7.50;99.90;;;;;;4947177;29;20702;-77
2020/12/13 00:09:32;;;;;;;17.23;12.07;;;7.50;99.90;;;;;;4955530;29;20456;-77
2020/12/13 00:11:57;;;;;;;20.10;12.33;;;7.40;99.90;;;;;;4954729;28;20242;-77
2020/12/13 00:14:23;;;;;;;17.00;11.57;;;7.40;99.90;;;;;;4955464;29;20424;-77
2020/12/13 00:16:52;;;;;;;17.73;11.60;;;7.40;99.90;;;;;;4953711;29;20358;-77
2020/12/13 00:19:18;;;;;;;18.40;11.73;;;7.40;99.90;;;;;;4955436;29;20186;-77
2020/12/13 00:21:47;;;;;;;17.23;11.93;;;7.40;99.90;;;;;;4954325;28;20467;-77
2020/12/13 00:24:13;;;;;;;14.05;11.63;;;7.30;99.90;;;;;;4955149;29;20465;-77
2020/12/13 00:26:41;;;;;;;15.60;12.30;;;7.30;99.90;;;;;;4932911;29;20224;-77
2020/12/13 00:29:07;;;;;;;17.95;11.70;;;7.30;99.90;;;;;;4947450;29;20186;-77
2020/12/13 00:31:32;;;;;;;16.30;11.33;;;7.40;99.90;;;;;;4954349;28;20215;-77
2020/12/13 00:33:58;;;;;;;14.40;11.40;;;7.40;99.90;;;;;;4949686;29;20176;-77
2020/12/13 00:36:23;;;;;;;12.93;9.97;;;7.50;99.90;;;;;;4948062;29;20663;-78
2020/12/13 00:38:51;;;;;;;15.80;11.10;;;7.50;99.90;;;;;;4954911;29;20600;-77
2020/12/13 00:41:17;;;;;;;13.32;10.43;;;7.50;99.90;;;;;;4937040;29;20227;-77
2020/12/13 00:43:42;;;;;;;14.93;10.97;;;7.50;99.90;;;;;;4954770;29;20208;-78
2020/12/13 00:46:08;;;;;;;13.87;9.97;;;7.60;99.90;;;;;;4952506;29;20434;-78
2020/12/13 00:48:34;;;;;;;14.10;10.60;;;7.70;99.90;;;;;;4955036;29;20173;-79
2020/12/13 00:51:00;;;;;;;11.83;9.57;;;7.70;99.90;;;;;;4954003;28;20195;-78
2020/12/13 00:53:25;;;;;;;10.37;8.77;;;7.70;99.90;;;;;;4954765;29;20175;-78
2020/12/13 00:55:51;;;;;;;11.60;8.70;;;7.80;99.90;;;;;;4953510;29;20184;-78
2020/12/13 00:58:17;;;;;;;12.30;9.50;;;7.70;99.90;;;;;;4954336;29;20687;-78
2020/12/13 01:00:43;;;;;;;13.73;8.80;;;7.70;99.90;;;;;;4954050;28;20823;-78
2020/12/13 01:03:08;;;;;;;10.33;8.87;;;7.70;99.90;;;;;;4953750;28;20238;-78
2020/12/13 01:05:34;;;;;;;14.83;9.40;;;7.70;99.90;;;;;;4952056;29;20203;-78
2020/12/13 01:08:00;;;;;;;12.23;9.20;;;7.70;99.90;;;;;;4945584;29;20266;-78
2020/12/13 01:10:26;;;;;;;10.17;8.50;;;7.60;99.90;;;;;;4954071;29;20173;-78
2020/12/13 01:12:51;;;;;;;12.60;9.50;;;7.50;99.90;;;;;;4953626;28;20481;-78
2020/12/13 01:15:17;;;;;;;13.73;9.83;;;7.50;99.90;;;;;;4954664;28;20259;-78
2020/12/13 01:17:45;;;;;;;12.50;9.95;;;7.50;99.90;;;;;;4933161;29;20358;-78
2020/12/13 01:20:11;;;;;;;10.73;8.85;;;7.70;99.90;;;;;;4954642;29;20177;-77
2020/12/13 01:22:37;;;;;;;10.52;9.02;;;7.60;99.90;;;;;;4953771;28;20257;-78
2020/12/13 01:25:05;;;;;;;12.80;9.03;;;7.50;99.90;;;;;;4955447;28;20226;-77
2020/12/13 01:27:30;;;;;;;12.60;9.25;;;7.50;99.90;;;;;;4946847;28;21069;-77
2020/12/13 01:29:56;;;;;;;12.23;9.33;;;7.50;99.90;;;;;;4954193;29;20200;-77
2020/12/13 01:32:23;;;;;;;13.40;9.98;;;7.40;99.90;;;;;;4936880;29;20235;-77
2020/12/13 01:34:49;;;;;;;14.50;10.90;;;7.40;99.90;;;;;;4953424;29;20546;-78
2020/12/13 01:37:14;;;;;;;11.30;8.80;;;7.40;99.90;;;;;;4945838;28;20205;-77
2020/12/13 01:39:40;;;;;;;12.10;9.10;;;7.40;99.90;;;;;;4936652;29;20179;-78
2020/12/13 01:42:05;;;;;;;13.47;9.70;;;7.40;99.90;;;;;;4953566;28;20230;-78
2020/12/13 01:44:35;;;;;;;10.17;8.57;;;7.50;99.90;;;;;;4953538;29;20164;-77
2020/12/13 01:47:03;;;;;;;11.73;9.03;;;7.50;99.90;;;;;;4946640;29;20282;-77
2020/12/13 01:49:40;;;;;;;12.77;10.85;;;7.50;99.90;;;;;;4953683;29;20430;-78
2020/12/13 01:55:09;;;;;;;12.52;9.52;;;7.50;99.90;;;;;;4953582;29;20656;-79
2020/12/13 01:57:37;;;;;;;10.63;8.02;;;7.60;99.90;;;;;;4941610;29;20203;-78
2020/12/13 02:00:11;;;;;;;13.40;9.20;;;7.50;99.90;;;;;;4953738;29;20170;-79
2020/12/13 02:02:47;;;;;;;12.57;9.33;;;7.40;99.90;;;;;;4951501;28;20482;-78
2020/12/13 02:05:14;;;;;;;12.18;10.15;;;7.40;99.90;;;;;;4952833;29;20426;-78
2020/12/13 02:07:41;;;;;;;12.40;10.32;;;7.40;99.90;;;;;;4952153;29;20211;-78
2020/12/13 02:10:09;;;;;;;12.65;8.73;;;7.40;99.90;;;;;;4936537;29;20180;-78
2020/12/13 02:12:35;;;;;;;11.60;9.13;;;7.40;99.90;;;;;;4951768;28;20223;-78
2020/12/13 02:15:01;;;;;;;11.20;9.10;;;7.40;99.90;;;;;;4953300;29;20583;-78
2020/12/13 02:17:28;;;;;;;12.55;9.73;;;7.40;99.90;;;;;;4940930;29;20454;-78
2020/12/13 02:19:55;;;;;;;11.52;9.00;;;7.50;99.90;;;;;;4953441;29;20663;-78
2020/12/13 02:22:21;;;;;;;10.70;8.47;;;7.50;99.90;;;;;;4952747;28;20236;-78
2020/12/13 02:24:47;;;;;;;10.57;8.00;;;7.50;99.90;;;;;;4945245;29;20810;-78
2020/12/13 02:27:12;;;;;;;11.60;8.80;;;7.40;99.90;;;;;;4949072;28;20208;-78
2020/12/13 02:29:38;;;;;;;13.03;9.43;;;7.40;99.90;;;;;;4959503;29;20278;-78
2020/12/13 02:32:05;;;;;;;10.10;8.50;;;7.40;99.90;;;;;;4959182;28;20221;-77
2020/12/13 02:34:30;;;;;;;14.00;10.05;;;7.50;99.90;;;;;;4942165;29;20272;-79
2020/12/13 02:36:56;;;;;;;12.50;10.13;;;7.50;99.90;;;;;;4941070;29;20348;-77
2020/12/13 02:39:22;;;;;;;14.33;10.20;;;7.50;99.90;;;;;;4959917;28;20175;-78
2020/12/13 02:42:02;;;;;;;12.83;10.27;;;7.50;99.90;;;;;;4958874;28;20219;-79
2020/12/13 02:44:28;;;;;;;13.88;9.18;;;7.60;99.90;;;;;;4959145;28;20678;-78
2020/12/13 02:46:54;;;;;;;12.38;9.98;;;7.60;99.90;;;;;;4940835;29;20213;-78
2020/12/13 02:49:20;;;;;;;14.80;11.37;;;7.60;99.90;;;;;;4959865;28;20225;-78
2020/12/13 02:51:45;;;;;;;11.57;9.57;;;7.60;99.90;;;;;;4959022;28;20450;-78
2020/12/13 02:54:11;;;;;;;14.93;11.17;;;7.60;99.90;;;;;;4941937;29;20177;-77
2020/12/13 02:56:40;;;;;;;15.47;10.93;;;7.60;99.90;;;;;;4951663;29;20226;-78
2020/12/13 02:59:07;;;;;;;11.82;10.40;;;7.50;99.90;;;;;;4959374;29;20250;-77
2020/12/13 03:01:33;;;;;;;14.60;11.07;;;7.60;99.90;;;;;;4958707;28;20219;-78
2020/12/13 03:03:58;;;;;;;14.53;11.10;;;7.60;99.90;;;;;;4959393;29;20200;-78
2020/12/13 03:06:24;;;;;;;14.10;10.17;;;7.60;99.90;;;;;;4953574;29;20449;-77
2020/12/13 03:08:50;;;;;;;13.70;10.90;;;7.60;99.90;;;;;;4957154;29;20206;-77
2020/12/13 03:11:20;;;;;;;13.97;10.77;;;7.70;99.90;;;;;;4958930;28;20271;-77
2020/12/13 03:13:52;;;;;;;15.27;11.35;;;7.60;99.90;;;;;;4958087;29;20176;-77
2020/12/13 03:16:20;;;;;;;14.45;10.73;;;7.60;99.90;;;;;;4953853;28;20244;-77
2020/12/13 03:18:46;;;;;;;12.40;9.70;;;7.60;99.90;;;;;;4956946;29;20169;-77
2020/12/13 03:21:12;;;;;;;16.00;10.97;;;7.60;99.90;;;;;;4958715;28;20193;-78
2020/12/13 03:23:37;;;;;;;13.40;10.03;;;7.60;99.90;;;;;;4958997;29;20667;-78
2020/12/13 03:26:03;;;;;;;13.73;11.00;;;7.60;99.90;;;;;;4957141;29;20639;-78
2020/12/13 03:28:29;;;;;;;19.43;11.40;;;7.70;99.90;;;;;;4959329;29;20607;-78
2020/12/13 03:30:55;;;;;;;12.77;10.50;;;7.60;99.90;;;;;;4958901;28;20446;-78
2020/12/13 03:33:21;;;;;;;13.37;10.30;;;7.60;99.90;;;;;;4956173;28;20456;-78
2020/12/13 03:35:47;;;;;;;14.80;10.38;;;7.60;99.90;;;;;;4945832;29;20180;-78
2020/12/13 03:38:13;;;;;;;14.15;11.48;;;7.60;99.90;;;;;;4948924;28;20215;-78
2020/12/13 03:40:39;;;;;;;13.40;10.63;;;7.60;99.90;;;;;;4938529;28;20265;-77
2020/12/13 03:43:04;;;;;;;17.07;9.50;;;7.50;99.90;;;;;;4955031;28;20219;-77
2020/12/13 03:45:30;;;;;;;15.60;11.20;;;7.50;99.90;;;;;;4955127;29;20170;-77
2020/12/13 03:47:56;;;;;;;10.57;8.73;;;7.60;99.90;;;;;;4946593;29;20272;-78
2020/12/13 03:50:21;;;;;;;12.37;9.63;;;7.50;99.90;;;;;;4956077;29;20172;-78
2020/12/13 03:52:47;;;;;;;14.37;10.20;;;7.50;99.90;;;;;;4955690;28;20651;-78
2020/12/13 03:55:13;;;;;;;11.30;8.53;;;7.60;99.90;;;;;;4953851;29;20180;-77
2020/12/13 03:57:38;;;;;;;13.00;9.27;;;7.60;99.90;;;;;;4954925;29;20222;-77
2020/12/13 04:00:05;;;;;;;10.27;8.43;;;7.70;99.90;;;;;;4955817;29;20182;-77
2020/12/13 04:02:31;;;;;;;10.63;8.70;;;7.70;99.90;;;;;;4953618;28;20219;-78
2020/12/13 04:04:56;;;;;;;10.70;8.60;;;7.60;99.90;;;;;;4960718;28;20627;-78
2020/12/13 04:07:22;;;;;;;9.00;8.03;;;7.50;99.90;;;;;;4954674;29;20612;-78
2020/12/13 04:09:48;;;;;;;9.10;7.23;;;7.50;99.90;;;;;;4955542;29;20178;-78
2020/12/13 04:12:13;;;;;;;10.43;8.00;;;7.50;99.90;;;;;;4954981;28;20227;-78
2020/12/13 04:14:39;;;;;;;10.37;7.57;;;7.40;99.90;;;;;;4955627;29;20654;-77
2020/12/13 04:17:04;;;;;;;8.07;7.23;;;7.40;99.90;;;;;;4946138;29;20741;-78
2020/12/13 04:19:35;;;;;;;9.83;7.13;;;7.40;99.90;;;;;;4955465;29;20180;-78
2020/12/13 04:22:03;;;;;;;9.70;8.70;;;7.50;99.90;;;;;;4954439;28;20239;-77
2020/12/13 04:24:29;;;;;;;8.68;7.05;;;7.40;99.90;;;;;;4955380;29;20218;-77
2020/12/13 04:26:55;;;;;;;9.00;6.60;;;7.40;99.90;;;;;;4945109;29;20699;-77
2020/12/13 04:29:20;;;;;;;9.17;8.03;;;7.50;99.90;;;;;;4949185;29;20184;-78
2020/12/13 04:31:46;;;;;;;7.67;6.50;;;7.50;99.90;;;;;;4954430;28;20275;-77
2020/12/13 04:34:12;;;;;;;8.03;7.23;;;7.50;99.90;;;;;;4953966;29;20591;-77
2020/12/13 04:36:37;;;;;;;7.27;6.30;;;7.60;99.90;;;;;;4953283;29;20298;-77
2020/12/13 04:39:03;;;;;;;7.60;6.80;;;7.50;99.90;;;;;;4954933;29;20731;-77
2020/12/13 04:41:29;;;;;;;8.90;6.13;;;7.50;99.90;;;;;;4954625;28;20621;-77
2020/12/13 04:43:56;;;;;;;7.97;5.77;;;7.60;99.90;;;;;;4954479;29;20818;-78
2020/12/13 04:46:28;;;;;;;7.28;6.57;;;7.50;99.90;;;;;;4953273;29;20207;-78
2020/12/13 04:48:55;;;;;;;6.78;6.07;;;7.50;99.90;;;;;;4955454;28;20172;-77
2020/12/13 04:51:26;;;;;;;7.13;5.80;;;7.50;99.90;;;;;;4952350;28;20259;-77
2020/12/13 04:54:03;;;;;;;9.40;6.20;;;7.50;99.90;;;;;;4954621;29;20172;-77
2020/12/13 04:56:32;;;;;;;8.57;6.65;;;7.50;99.90;;;;;;4947446;29;20348;-77
2020/12/13 04:59:04;;;;;;;8.80;7.30;;;7.50;99.90;;;;;;4953661;29;20315;-77
2020/12/13 05:01:30;;;;;;;7.32;5.80;;;7.40;99.90;;;;;;4952342;28;20217;-77
2020/12/13 05:03:55;;;;;;;7.30;6.60;;;7.50;99.90;;;;;;4954290;29;20560;-77
2020/12/13 05:06:25;;;;;;;10.10;7.70;;;7.50;99.90;;;;;;4929427;29;20565;-77
2020/12/13 05:08:52;;;;;;;9.15;7.22;;;7.50;99.90;;;;;;4952550;29;20531;-77
2020/12/13 05:11:18;;;;;;;8.15;7.05;;;7.50;99.90;;;;;;4954231;28;20223;-77
2020/12/13 05:13:43;;;;;;;8.13;7.33;;;7.60;99.90;;;;;;4954737;29;20186;-78
2020/12/13 05:16:10;;;;;;;9.30;8.00;;;7.60;99.90;;;;;;4952701;29;20185;-78
2020/12/13 05:18:40;;;;;;;10.85;8.52;;;7.60;99.90;;;;;;4954445;29;20177;-78
2020/12/13 05:21:06;;;;;;;11.68;8.32;;;7.50;99.90;;;;;;4953668;28;20283;-78
2020/12/13 05:23:33;;;;;;;14.85;8.73;;;7.50;99.90;;;;;;4954108;29;20651;-78
2020/12/13 05:25:59;;;;;;;10.35;8.73;;;7.50;99.90;;;;;;4945432;29;20636;-78
2020/12/13 05:28:25;;;;;;;11.45;9.48;;;7.50;99.90;;;;;;4956522;28;20172;-78
2020/12/13 05:30:53;;;;;;;17.47;10.17;;;7.40;99.90;;;;;;4937756;29;20642;-78
2020/12/13 05:33:36;;;;;;;12.10;9.93;;;7.40;99.90;;;;;;4948834;29;20491;-78
2020/12/13 05:36:04;;;;;;;11.32;9.02;;;7.50;99.90;;;;;;4936886;29;20551;-78
2020/12/13 05:38:35;;;;;;;14.50;9.20;;;7.50;99.90;;;;;;4954046;29;20584;-79
2020/12/13 05:41:03;;;;;;;10.70;9.27;;;7.40;99.90;;;;;;4952929;28;20575;-79
2020/12/13 05:43:32;;;;;;;11.60;9.00;;;7.40;99.90;;;;;;4955168;29;20196;-79
2020/12/13 05:53:24;;;;;;;11.67;9.00;;;7.40;99.90;;;;;;4955383;29;20582;-80
2020/12/13 05:55:53;;;;;;;15.30;9.50;;;7.40;99.90;;;;;;4946820;29;20188;-80
2020/12/13 05:58:20;;;;;;;13.40;10.80;;;7.40;99.90;;;;;;4955164;29;20306;-80
2020/12/13 06:00:46;;;;;;;13.18;9.77;;;7.40;99.90;;;;;;4954935;28;20629;-80
2020/12/13 06:03:20;;;;;;;9.30;8.30;;;7.40;99.90;;;;;;4954495;29;20215;-80
2020/12/13 06:05:51;;;;;;;15.23;10.70;;;7.40;99.90;;;;;;4954667;29;20455;-79
2020/12/13 06:08:26;;;;;;;13.95;9.52;;;7.40;99.90;;;;;;4947757;29;20248;-79
2020/12/13 06:10:55;;;;;;;14.32;9.60;;;7.30;99.90;;;;;;4953703;28;20193;-79
2020/12/13 06:13:25;;;;;;;13.10;10.48;;;7.40;99.90;;;;;;4953150;29;20358;-79
2020/12/13 06:15:51;;;;;;;12.90;9.70;;;7.40;99.90;;;;;;4952638;29;20235;-80
2020/12/13 06:18:17;;;;;;;13.05;9.65;;;7.30;99.90;;;;;;4938733;29;20227;-79
2020/12/13 06:20:45;;;;;;;12.13;9.80;;;7.30;99.90;;;;;;4953213;28;20179;-78
2020/12/13 06:23:13;;;;;;;17.92;9.48;;;7.30;99.90;;;;;;4952704;29;20212;-78
2020/12/13 06:25:39;;;;;;;13.05;10.20;;;7.30;99.90;;;;;;4946581;29;20532;-78
2020/12/13 06:28:05;;;;;;;16.13;11.03;;;7.30;99.90;;;;;;4928026;29;20237;-77
2020/12/13 06:30:31;;;;;;;15.40;11.00;;;7.30;99.90;;;;;;4953663;28;20455;-77
2020/12/13 06:32:58;;;;;;;15.80;11.27;;;7.20;99.90;;;;;;4952674;29;20455;-77
2020/12/13 06:35:23;;;;;;;16.58;11.43;;;7.20;99.90;;;;;;4952830;29;20191;-77
2020/12/13 06:37:49;;;;;;;15.40;11.00;;;7.20;99.90;;;;;;4952232;29;20599;-77
2020/12/13 06:40:21;;;;;;;16.70;11.20;;;7.20;99.90;;;;;;4953724;29;20678;-77
2020/12/13 06:42:49;;;;;;;20.65;12.30;;;7.20;99.90;;;;;;4935387;29;20275;-77
2020/12/13 06:45:16;;;;;;;21.15;12.00;;;7.30;99.90;;;;;;4953493;29;20168;-77
2020/12/13 06:47:43;;;;;;;16.17;11.50;;;7.30;99.90;;;;;;4952060;29;20207;-77
2020/12/13 06:50:30;;;;;;;16.95;13.10;;;7.20;99.90;;;;;;4952221;29;20222;-77
2020/12/13 06:52:56;;;;;;;17.95;13.07;;;7.20;99.90;;;;;;4952247;29;20246;-77
2020/12/13 06:55:32;;;;;;;14.48;10.82;;;7.20;99.90;;;;;;4935802;29;20184;-77
2020/12/13 06:58:03;;;;;;;16.20;11.75;;;7.20;99.90;;;;;;4945500;29;20216;-78
2020/12/13 07:00:47;;;;;;;15.50;11.50;;;7.20;99.90;;;;;;4952684;28;20172;-78
2020/12/13 07:03:25;;;;;;;15.93;11.73;;;7.20;99.90;;;;;;4950999;29;20222;-77
2020/12/13 07:05:57;;;;;;;17.92;11.38;;;7.10;99.90;;;;;;4950720;29;20259;-77
2020/12/13 07:08:25;;;;;;;13.63;10.10;;;7.20;99.90;;;;;;4945269;29;20284;-77
2020/12/13 07:10:53;;;;;;;17.58;10.70;;;7.20;99.90;;;;;;4954198;28;20185;-77
2020/12/13 07:13:24;;;;;;;15.10;10.50;;;7.10;99.90;;;;;;4955773;28;20213;-78
2020/12/13 07:15:59;;;;;;;13.90;11.02;;;7.10;99.90;;;;;;4937936;29;20183;-78
2020/12/13 07:18:25;;;;;;;20.10;12.45;;;7.10;99.90;;;;;;4974138;28;20217;-78
2020/12/13 07:20:51;;;;;;;12.00;9.30;;;7.00;99.90;;;;;;4974923;28;20195;-77
2020/12/13 07:23:17;;;;;;;14.37;10.20;;;7.00;99.90;;;;;;4974258;28;21076;-78
2020/12/13 07:25:42;;;;;;;16.97;10.10;;;6.90;99.90;;;;;;4974198;28;20183;-78
2020/12/13 07:28:09;;;;;;;16.07;9.90;;;6.90;99.90;;;;;;4971639;28;20458;-78
2020/12/13 07:30:38;;;;;;;13.55;10.18;;;6.90;99.90;;;;;;4975054;28;20642;-78
2020/12/13 07:33:07;;;;;;;12.82;10.00;;;6.80;99.90;;;;;;4979205;28;20211;-78
2020/12/13 07:35:34;;;;;;;13.48;8.73;;;6.80;99.90;;;;;;4967123;28;20179;-77
2020/12/13 07:38:00;;;;;;;13.18;8.10;;;6.80;99.90;;;;;;4971305;28;20319;-78
2020/12/13 07:40:28;;;;;;;12.63;9.80;;;6.80;99.90;;;;;;4974626;28;20183;-78
2020/12/13 07:42:58;;;;;;;11.73;9.55;;;6.70;99.90;;;;;;4973091;28;20308;-78
2020/12/13 07:45:24;;;;;;;12.60;9.00;;;6.80;99.90;;;;;;4972860;28;20175;-77
2020/12/13 07:48:00;;;;;;;12.27;9.90;;;6.80;99.90;;;;;;4973635;28;20203;-76
2020/12/13 07:50:36;;;;;;;10.55;9.35;;;6.70;99.90;;;;;;4964677;28;20291;-78
2020/12/13 07:53:03;;;;;;;14.57;9.15;;;6.70;99.90;;;;;;4958847;28;20239;-78
2020/12/13 07:55:29;;;;;;;9.88;8.32;;;6.70;99.90;;;;;;4973831;28;20230;-77
2020/12/13 07:57:55;;;;;;;14.95;9.50;;;6.60;99.90;;;;;;4972059;28;20760;-78
2020/12/13 08:00:20;;;;;;;10.60;8.95;;;6.60;99.90;;;;;;4974696;28;20207;-77
2020/12/13 08:02:47;;;;;;;15.57;9.50;;;6.60;99.90;;;;;;4973341;28;20229;-78
2020/12/13 08:05:17;;;;;;;9.65;8.38;;;6.70;99.90;;;;;;4970902;28;20175;-78
2020/12/13 08:07:43;;;;;;;11.68;8.75;;;6.80;99.90;;;;;;4960444;28;20219;-78
2020/12/13 08:10:09;;;;;;;11.23;8.63;;;6.80;99.90;;;;;;4974593;28;20661;-78
2020/12/13 08:12:39;;;;;;;13.20;9.57;;;6.70;99.90;;;;;;4962330;28;20243;-77
2020/12/13 08:15:06;;;;;;;12.55;8.65;;;6.70;99.90;;;;;;4966645;28;20266;-78
2020/12/13 08:17:32;;;;;;;17.27;8.13;;;6.70;99.90;;;;;;4972899;28;20212;-77
2020/12/13 08:20:02;;;;;;;10.65;8.05;;;6.70;99.90;;;;;;4974049;28;20542;-77
2020/12/13 08:22:32;;;;;;;14.27;8.27;;;6.70;99.90;;;;;;4973463;28;20211;-77
2020/12/13 08:25:02;;;;;;;10.48;8.13;;;6.60;99.90;;;;;;4972698;28;20186;-78
2020/12/13 08:27:29;;;;;;;11.25;8.25;;;6.60;99.90;;;;;;4966015;28;20203;-78
2020/12/13 08:29:57;;;;;;;11.80;8.15;;;6.60;99.90;;;;;;4973915;28;20179;-77
2020/12/13 08:32:23;;;;;;;9.80;7.18;;;6.70;99.90;;;;;;4971909;28;20620;-77
2020/12/13 08:34:50;;;;;;;12.35;7.82;;;6.70;99.90;;;;;;4973512;28;20176;-77
2020/12/13 08:37:23;;;;;;;8.18;6.72;;;6.70;99.90;;;;;;4965259;28;20229;-78
2020/12/13 08:39:49;;;;;;;10.95;7.93;;;6.70;99.90;;;;;;4973353;28;20199;-78
2020/12/13 08:42:23;;;;;;;8.18;6.57;;;6.70;99.90;;;;;;4971860;28;20772;-78
2020/12/13 08:44:49;;;;;;;8.98;6.35;;;6.70;99.90;;;;;;4973217;28;20636;-78
2020/12/13 08:47:17;;;;;;;9.00;6.20;;;6.80;99.90;;;;;;4971882;28;20298;-79
2020/12/13 08:49:49;;;;;;;8.07;6.22;;;6.80;99.90;;;;;;4972683;28;20183;-76
2020/12/13 08:52:26;;;;;;;7.68;6.18;;;6.80;99.90;;;;;;4965855;28;20760;-77
2020/12/13 08:54:57;;;;;;;5.60;5.03;;;6.80;99.90;;;;;;4971466;28;20727;-77
2020/12/13 08:57:33;;;;;;;9.77;5.35;;;6.80;99.90;;;;;;4980820;28;20218;-77
2020/12/13 09:00:18;;;;;;;4.80;4.30;;;7.00;99.90;;;;;;4975107;28;20183;-77
2020/12/13 09:03:04;;;;;;;5.95;4.13;;;7.00;99.90;;;;;;4972419;28;20221;-77
2020/12/13 09:05:32;;;;;;;6.95;4.35;;;7.00;99.90;;;;;;4959528;28;20661;-77
2020/12/13 09:07:59;;;;;;;10.43;4.78;;;7.00;99.90;;;;;;4972104;28;20583;-76
2020/12/13 09:10:26;;;;;;;5.50;4.72;;;7.00;99.90;;;;;;4967470;28;20164;-76
2020/12/13 09:12:51;;;;;;;6.65;5.70;;;7.10;99.90;;;;;;4972468;28;20742;-77
2020/12/13 09:15:19;;;;;;;5.87;4.47;;;7.20;99.90;;;;;;4971114;28;20235;-77
2020/12/13 09:17:59;;;;;;;6.35;4.65;;;7.20;99.90;;;;;;4972101;28;20304;-77
2020/12/13 09:20:36;;;;;;;8.40;5.00;;;7.10;99.90;;;;;;4973328;28;20171;-76
2020/12/13 09:23:10;;;;;;;4.65;4.25;;;7.10;99.90;;;;;;4972489;28;20222;-77
2020/12/13 09:25:44;;;;;;;7.05;4.38;;;7.00;99.90;;;;;;4970764;28;20233;-77
2020/12/13 09:28:11;;;;;;;6.05;4.10;;;7.00;99.90;;;;;;4981360;28;20235;-77
2020/12/13 09:30:38;;;;;;;6.50;4.75;;;7.10;99.90;;;;;;4971382;28;20176;-77
2020/12/13 09:33:04;;;;;;;6.30;4.70;;;7.20;99.90;;;;;;4972435;28;20287;-77
2020/12/13 09:35:32;;;;;;;7.53;6.00;;;7.30;99.90;;;;;;4971301;28;20782;-77
2020/12/13 09:38:03;;;;;;;4.53;4.13;;;7.30;99.90;;;;;;4969601;28;20486;-77
2020/12/13 09:40:32;;;;;;;8.55;4.40;;;7.20;99.90;;;;;;4952430;28;20302;-76
2020/12/13 09:42:58;;;;;;;6.15;4.80;;;7.30;99.90;;;;;;4953981;28;20225;-77
2020/12/13 09:45:25;;;;;;;7.10;4.97;;;7.30;99.90;;;;;;4969058;28;20227;-77
2020/12/13 09:47:56;;;;;;;5.60;4.43;;;7.30;99.90;;;;;;4969938;28;20208;-78
2020/12/13 09:50:25;;;;;;;7.40;5.33;;;7.20;99.90;;;;;;4972408;28;20647;-77
2020/12/13 09:52:51;;;;;;;6.72;4.38;;;7.30;99.90;;;;;;4971082;28;20513;-77
2020/12/13 09:55:18;;;;;;;6.05;4.30;;;7.40;99.90;;;;;;4971993;28;20540;-76
2020/12/13 09:57:43;;;;;;;6.65;4.38;;;7.40;99.90;;;;;;4963412;28;20230;-76
2020/12/13 10:00:09;;;;;;;4.60;3.90;;;7.50;99.90;;;;;;4978428;28;20171;-76
2020/12/13 10:02:35;;;;;;;6.90;4.30;;;7.60;99.90;;;;;;4971207;28;20218;-76
2020/12/13 10:05:03;;;;;;;7.07;5.20;;;7.60;99.90;;;;;;4971646;28;20175;-76
2020/12/13 10:09:57;;;;;;;6.57;4.80;;;7.50;99.90;;;;;;4972153;28;20167;-77
2020/12/13 10:12:23;;;;;;;5.03;4.50;;;7.50;99.90;;;;;;4971559;28;20752;-76
2020/12/13 10:14:49;;;;;;;5.53;4.13;;;7.50;99.90;;;;;;4967783;28;20175;-76
2020/12/13 10:17:15;;;;;;;6.10;4.47;;;7.50;99.90;;;;;;4960677;28;20521;-76
2020/12/13 10:19:41;;;;;;;6.60;4.73;;;7.60;99.90;;;;;;4971780;28;20418;-76
2020/12/13 10:22:06;;;;;;;7.13;4.00;;;7.60;99.90;;;;;;4970174;28;20452;-76
2020/12/13 10:24:32;;;;;;;9.13;4.47;;;7.70;99.90;;;;;;4971481;28;20203;-76
2020/12/13 10:26:58;;;;;;;5.50;3.17;;;7.80;99.90;;;;;;4963487;28;20207;-76
2020/12/13 10:29:24;;;;;;;4.43;3.80;;;7.80;99.90;;;;;;4971798;28;20479;-76
2020/12/13 10:31:50;;;;;;;3.10;2.80;;;8.00;99.90;;;;;;4971079;28;20449;-76
2020/12/13 10:34:16;;;;;;;4.80;3.53;;;7.90;99.90;;;;;;4971754;28;20423;-76
2020/12/13 10:36:42;;;;;;;4.97;3.37;;;7.90;99.90;;;;;;4969526;28;20453;-77
2020/12/13 10:39:09;;;;;;;5.70;3.20;;;7.90;99.90;;;;;;4970285;28;20973;-77
2020/12/13 10:41:38;;;;;;;4.03;2.83;;;8.00;99.90;;;;;;4969263;28;20454;-77
2020/12/13 10:44:04;;;;;;;3.97;2.63;;;8.00;99.90;;;;;;4971087;28;20450;-77
2020/12/13 10:46:30;;;;;;;4.63;2.90;;;8.10;99.90;;;;;;4966236;28;20441;-77
2020/12/13 10:48:56;;;;;;;6.30;2.90;;;8.20;99.90;;;;;;4969474;28;20418;-77
2020/12/13 10:51:22;;;;;;;3.60;2.10;;;8.20;99.90;;;;;;4973550;28;20527;-77
2020/12/13 10:53:48;;;;;;;4.33;2.67;;;8.20;99.90;;;;;;4974783;28;20412;-77
2020/12/13 10:56:15;;;;;;;3.40;2.20;;;8.30;99.90;;;;;;4966267;28;20767;-78
2020/12/13 10:58:43;;;;;;;4.10;2.63;;;8.20;99.90;;;;;;4976994;28;20425;-77
2020/12/13 11:01:10;;;;;;;5.90;2.03;;;8.20;99.90;;;;;;4974153;28;20439;-77
2020/12/13 11:03:36;;;;;;;3.13;1.90;;;8.30;99.90;;;;;;4975139;28;20798;-77
2020/12/13 11:06:02;;;;;;;3.13;1.60;;;8.30;99.90;;;;;;4969601;28;20819;-78
2020/12/13 11:08:28;;;;;;;3.40;1.93;;;8.40;99.90;;;;;;4969747;28;20750;-78
2020/12/13 11:10:54;;;;;;;2.03;1.40;;;8.40;99.90;;;;;;4974866;28;20471;-77
2020/12/13 11:13:20;;;;;;;6.33;3.30;;;8.40;99.90;;;;;;4974897;28;20218;-77
2020/12/13 11:15:47;;;;;;;4.03;2.30;;;8.40;99.90;;;;;;4972466;28;20952;-77
2020/12/13 11:18:13;;;;;;;4.57;1.90;;;8.50;99.90;;;;;;4972254;28;20457;-77
2020/12/13 11:20:39;;;;;;;2.37;2.07;;;8.40;99.90;;;;;;4955805;28;20770;-77
2020/12/13 11:23:05;;;;;;;3.13;1.77;;;8.40;99.90;;;;;;4966781;28;20832;-76
2020/12/13 11:25:31;;;;;;;4.37;1.33;;;8.50;99.90;;;;;;4975125;28;20441;-77
2020/12/13 11:27:57;;;;;;;2.87;1.07;;;8.30;99.90;;;;;;4972747;28;20823;-77
2020/12/13 11:30:24;;;;;;;4.03;1.90;;;8.40;99.90;;;;;;4975016;28;20175;-76
2020/12/13 11:32:50;;;;;;;2.00;1.80;;;8.40;99.90;;;;;;4973753;28;20458;-77
2020/12/13 11:35:17;;;;;;;3.53;1.40;;;8.50;99.90;;;;;;4974111;28;20422;-77
2020/12/13 11:37:43;;;;;;;5.97;2.00;;;8.60;99.90;;;;;;4973462;28;20450;-78
2020/12/13 11:40:09;;;;;;;1.33;1.20;;;8.50;99.90;;;;;;4974394;28;20440;-77
2020/12/13 11:42:35;;;;;;;2.20;1.60;;;8.50;99.90;;;;;;4973442;28;20820;-77
2020/12/13 11:45:03;;;;;;;3.23;1.30;;;8.50;99.90;;;;;;4973754;28;20222;-77
2020/12/13 11:47:29;;;;;;;2.30;1.20;;;8.50;99.90;;;;;;4969783;28;20461;-77
2020/12/13 11:49:55;;;;;;;1.90;1.20;;;8.50;99.90;;;;;;4974296;28;20758;-78
2020/12/13 11:52:20;;;;;;;4.47;1.10;;;8.40;99.90;;;;;;4973262;28;20211;-76
2020/12/13 11:54:47;;;;;;;4.37;1.37;;;8.40;99.90;;;;;;4974387;28;20540;-76
2020/12/13 11:57:13;;;;;;;1.63;1.27;;;8.40;99.90;;;;;;4965187;28;20218;-78
2020/12/13 11:59:39;;;;;;;2.17;1.33;;;8.40;99.90;;;;;;4966946;28;20430;-77
2020/12/13 12:02:05;;;;;;;7.03;1.40;;;8.40;99.90;;;;;;4963568;28;20455;-77
2020/12/13 12:04:31;;;;;;;3.93;1.37;;;8.30;99.90;;;;;;4963280;28;20243;-78
2020/12/13 12:06:57;;;;;;;2.10;1.20;;;8.30;99.90;;;;;;4963262;28;20458;-77
2020/12/13 12:09:22;;;;;;;2.03;1.37;;;8.30;99.90;;;;;;4967512;28;20181;-76
2020/12/13 12:11:51;;;;;;;2.80;1.23;;;8.30;99.90;;;;;;4961996;28;20210;-77
2020/12/13 12:14:17;;;;;;;1.53;1.10;;;8.30;99.90;;;;;;4961684;28;20177;-76
2020/12/13 12:16:44;;;;;;;2.50;1.40;;;8.40;99.90;;;;;;4966017;28;20814;-77
2020/12/13 12:19:11;;;;;;;2.67;1.37;;;8.40;99.90;;;;;;4963979;28;20266;-77
2020/12/13 12:21:44;;;;;;;3.50;1.40;;;8.40;99.90;;;;;;4963228;28;20939;-77
2020/12/13 12:24:10;;;;;;;4.10;1.70;;;8.40;99.90;;;;;;4963465;28;20467;-77
2020/12/13 12:26:36;;;;;;;2.70;2.20;;;8.40;99.90;;;;;;4962398;28;20442;-76
2020/12/13 12:29:02;;;;;;;2.60;1.43;;;8.50;99.90;;;;;;4973555;28;20440;-77
2020/12/13 12:31:28;;;;;;;5.77;1.60;;;8.40;99.90;;;;;;4972891;28;20214;-76
2020/12/13 12:33:57;;;;;;;2.03;1.83;;;8.30;99.90;;;;;;4971896;28;20576;-77
2020/12/13 12:36:25;;;;;;;5.57;2.77;;;8.30;99.90;;;;;;4962863;28;20219;-77
2020/12/13 12:38:52;;;;;;;4.07;2.27;;;8.40;99.90;;;;;;4973529;28;20420;-76
2020/12/13 12:41:20;;;;;;;3.93;2.93;;;8.40;99.90;;;;;;4984956;23;20493;-76
2020/12/13 12:43:47;;;;;;;3.20;1.93;;;8.40;99.90;;;;;;4972049;28;20517;-76
2020/12/13 12:46:14;;;;;;;3.63;1.80;;;8.40;99.90;;;;;;4970256;28;20433;-76
2020/12/13 12:48:40;;;;;;;6.50;2.60;;;8.40;99.90;;;;;;4986712;23;20551;-76
2020/12/13 12:51:09;;;;;;;7.55;2.20;;;8.40;99.90;;;;;;4972484;28;20455;-76
2020/12/13 12:53:35;;;;;;;6.43;2.72;;;8.30;99.90;;;;;;4973495;28;20795;-77
2020/12/13 12:56:07;;;;;;;2.88;1.98;;;8.30;99.90;;;;;;4965739;28;20203;-76
2020/12/13 12:58:46;;;;;;;4.57;2.60;;;8.30;99.90;;;;;;4967823;28;20212;-75
2020/12/13 13:01:18;;;;;;;10.10;2.23;;;8.20;99.90;;;;;;4966490;28;20462;-76
2020/12/13 13:03:45;;;;;;;6.65;2.25;;;8.20;99.90;;;;;;4973183;28;20460;-77